Time;durP1;ratioP1;P1;durP2;ratioP2;P2;SDS_P1;SDS_P2;PMS_P1;PMS_P2;Temp;Humidity;BMP_temperature;BMP_pressure;BME280_temperature;BME280_humidity;BME280_pressure;Samples;Min_cycle;Max_cycle;Signal;HPM_P1;HPM_P2
2022/08/01 00:01:33;;;;;;;1.27;1.23;;;;;;;18.11;100.00;100199.56;5072444;28;20185;-74
2022/08/01 00:03:59;;;;;;;1.53;0.60;;;;;;;18.09;100.00;100193.63;5073391;28;20693;-74
2022/08/01 00:06:25;;;;;;;2.43;1.37;;;;;;;18.11;100.00;100197.59;5073262;28;20194;-74
2022/08/01 00:08:50;;;;;;;0.47;0.47;;;;;;;18.11;100.00;100192.06;5071746;28;20542;-74
2022/08/01 00:11:15;;;;;;;0.20;0.20;;;;;;;18.14;100.00;100196.06;5073264;28;20228;-74
2022/08/01 00:13:41;;;;;;;1.23;1.17;;;;;;;18.14;100.00;100190.53;5073533;28;20201;-74
2022/08/01 00:16:06;;;;;;;0.87;0.87;;;;;;;18.14;100.00;100185.00;5073681;28;20200;-74
2022/08/01 00:18:32;;;;;;;1.33;1.27;;;;;;;18.16;100.00;100195.69;5072719;28;20174;-75
2022/08/01 00:20:57;;;;;;;0.00;0.00;;;;;;;18.17;100.00;100195.31;5073224;28;20244;-74
2022/08/01 00:23:22;;;;;;;1.20;1.20;;;;;;;18.18;100.00;100196.91;5071345;28;20275;-75
2022/08/01 00:25:48;;;;;;;2.13;1.93;;;;;;;18.22;100.00;100191.44;5071711;28;20235;-74
2022/08/01 00:28:13;;;;;;;1.23;1.13;;;;;;;18.22;100.00;100195.00;5072768;28;20163;-75
2022/08/01 00:30:39;;;;;;;2.33;2.23;;;;;;;18.22;100.00;100189.47;5072881;28;20170;-74
2022/08/01 00:33:04;;;;;;;0.80;0.33;;;;;;;18.23;100.00;100185.56;5071631;28;20227;-74
2022/08/01 00:35:30;;;;;;;0.67;0.67;;;;;;;18.24;100.00;100191.91;5072916;28;20252;-74
2022/08/01 00:37:55;;;;;;;1.77;1.67;;;;;;;18.22;100.00;100192.25;5072637;28;20205;-74
2022/08/01 00:40:21;;;;;;;0.63;0.63;;;;;;;18.23;100.00;100190.31;5071229;28;20179;-74
2022/08/01 00:42:46;;;;;;;1.03;1.03;;;;;;;18.22;100.00;100195.00;5071385;28;20181;-75
2022/08/01 00:45:12;;;;;;;2.00;1.70;;;;;;;18.24;100.00;100189.94;5072763;28;20631;-74
2022/08/01 00:47:37;;;;;;;0.83;0.83;;;;;;;18.26;100.00;100181.25;5072540;28;20206;-75
2022/08/01 00:50:06;;;;;;;0.67;0.67;;;;;;;18.24;100.00;100187.16;5072305;28;20182;-74
2022/08/01 00:52:33;;;;;;;0.77;0.73;;;;;;;18.27;100.00;100191.94;5072022;28;20186;-75
2022/08/01 00:54:59;;;;;;;2.10;0.27;;;;;;;18.27;100.00;100189.19;5071180;28;20225;-75
2022/08/01 00:57:25;;;;;;;0.37;0.37;;;;;;;18.24;100.00;100187.16;5072338;28;20329;-75
2022/08/01 00:59:52;;;;;;;19.63;0.80;;;;;;;18.26;100.00;100190.34;5072395;28;20233;-74
2022/08/01 01:02:17;;;;;;;1.97;1.83;;;;;;;18.23;100.00;100180.03;5071009;28;20263;-75
2022/08/01 01:04:43;;;;;;;0.20;0.20;;;;;;;18.24;100.00;100184.41;5072361;28;20227;-74
2022/08/01 01:07:29;;;;;;;3.43;1.67;;;;;;;18.24;100.00;100176.09;5071987;28;20677;-76
2022/08/01 01:10:15;;;;;;;1.33;1.23;;;;;;;18.21;100.00;100181.56;5072074;28;20167;-75
2022/08/01 01:13:06;;;;;;;0.70;0.70;;;;;;;18.17;100.00;100175.97;5072148;28;20649;-75
2022/08/01 01:15:55;;;;;;;0.70;0.70;;;;;;;18.14;100.00;100176.72;5072103;28;20167;-75
2022/08/01 01:18:24;;;;;;;0.97;0.83;;;;;;;18.10;100.00;100168.38;5071531;28;20171;-77
2022/08/01 01:21:07;;;;;;;1.37;1.30;;;;;;;18.08;100.00;100172.63;5072036;28;20174;-77
2022/08/01 01:24:06;;;;;;;1.30;1.30;;;;;;;18.02;100.00;100163.88;5071752;28;20173;-76
2022/08/01 01:26:57;;;;;;;0.63;0.63;;;;;;;18.02;100.00;100165.81;5071665;28;20194;-78
2022/08/01 01:29:30;;;;;;;0.70;0.70;;;;;;;18.01;100.00;100164.22;5071406;28;20695;-76
2022/08/01 01:32:02;;;;;;;0.93;0.93;;;;;;;17.99;100.00;100163.81;5071636;28;20178;-76
2022/08/01 01:34:28;;;;;;;1.10;1.10;;;;;;;17.95;100.00;100174.00;5071253;28;20216;-76
2022/08/01 01:36:56;;;;;;;1.17;1.10;;;;;;;17.93;100.00;100166.06;5071137;28;20709;-75
2022/08/01 01:39:25;;;;;;;0.47;0.47;;;;;;;17.93;100.00;100168.03;5071323;28;20202;-76
2022/08/01 01:41:53;;;;;;;0.60;0.37;;;;;;;17.91;100.00;100167.59;5070353;28;20265;-74
2022/08/01 01:44:18;;;;;;;0.20;0.20;;;;;;;17.90;100.00;100160.47;5067651;28;20183;-75
2022/08/01 01:46:45;;;;;;;0.10;0.10;;;;;;;17.88;100.00;100165.56;5071036;28;20213;-75
2022/08/01 01:49:11;;;;;;;0.70;0.70;;;;;;;17.88;100.00;100165.56;5070977;28;20171;-75
2022/08/01 01:51:39;;;;;;;0.40;0.40;;;;;;;17.87;100.00;100163.97;5069842;28;20251;-76
2022/08/01 01:54:07;;;;;;;0.63;0.63;;;;;;;17.87;100.00;100170.31;5070896;28;20528;-76
2022/08/01 01:56:34;;;;;;;0.23;0.23;;;;;;;17.86;100.00;100160.41;5069889;28;20177;-77
2022/08/01 01:59:02;;;;;;;0.00;0.00;;;;;;;17.84;100.00;100166.31;5071047;28;20170;-75
2022/08/01 02:01:31;;;;;;;0.30;0.30;;;;;;;17.82;100.00;100163.13;5069939;28;20272;-76
2022/08/01 02:03:57;;;;;;;0.70;0.70;;;;;;;17.80;100.00;100165.47;5071212;28;20783;-76
2022/08/01 02:06:25;;;;;;;0.20;0.20;;;;;;;17.81;100.00;100166.25;5071137;28;20509;-75
2022/08/01 02:08:52;;;;;;;0.60;0.60;;;;;;;17.79;100.00;100163.03;5069427;28;20181;-75
2022/08/01 02:11:19;;;;;;;0.50;0.50;;;;;;;17.80;100.00;100161.91;5069909;28;20170;-75
2022/08/01 02:13:55;;;;;;;0.87;0.10;;;;;;;17.80;100.00;100168.22;5071346;28;20317;-76
2022/08/01 02:16:24;;;;;;;0.53;0.53;;;;;;;17.79;100.00;100165.81;5071176;28;20177;-76
2022/08/01 02:18:50;;;;;;;0.17;0.17;;;;;;;17.79;100.00;100166.63;5070554;28;20183;-75
2022/08/01 02:21:23;;;;;;;0.00;0.00;;;;;;;17.79;100.00;100163.03;5070999;28;20246;-74
2022/08/01 02:23:49;;;;;;;0.47;0.30;;;;;;;17.83;100.00;100169.44;5070917;28;20206;-75
2022/08/01 02:26:17;;;;;;;0.97;0.97;;;;;;;17.82;100.00;100168.66;5069486;28;20206;-75
2022/08/01 02:29:06;;;;;;;0.43;0.43;;;;;;;17.84;100.00;100162.75;5070547;28;20240;-75
2022/08/01 02:31:38;;;;;;;0.80;0.80;;;;;;;17.84;100.00;100171.03;5070941;28;20609;-75
2022/08/01 02:34:07;;;;;;;0.13;0.13;;;;;;;17.86;100.00;100170.69;5070847;28;20228;-75
2022/08/01 02:36:35;;;;;;;0.00;0.00;;;;;;;17.88;100.00;100168.34;5069441;28;20174;-75
2022/08/01 02:39:07;;;;;;;3.53;1.27;;;;;;;17.87;100.00;100170.31;5070564;28;20174;-74
2022/08/01 02:41:38;;;;;;;0.20;0.20;;;;;;;17.88;100.00;100176.63;5069488;28;20188;-74
2022/08/01 02:44:06;;;;;;;5.23;2.53;;;;;;;17.88;100.00;100182.16;5069298;28;20261;-75
2022/08/01 02:46:46;;;;;;;0.00;0.00;;;;;;;17.87;100.00;100192.41;5070320;28;20245;-78
2022/08/01 02:49:13;;;;;;;0.00;0.00;;;;;;;17.88;100.00;100198.75;5070444;28;20170;-76
2022/08/01 02:51:40;;;;;;;0.13;0.13;;;;;;;17.84;100.00;100195.91;5070546;28;20194;-76
2022/08/01 02:54:07;;;;;;;0.00;0.00;;;;;;;17.73;100.00;100192.16;5070192;28;20198;-76
2022/08/01 02:56:35;;;;;;;0.10;0.10;;;;;;;17.68;100.00;100197.94;5070395;28;20257;-76
2022/08/01 02:59:11;;;;;;;0.00;0.00;;;;;;;17.61;100.00;100195.03;5070252;28;20583;-76
2022/08/01 03:01:39;;;;;;;0.00;0.00;;;;;;;17.58;100.00;100193.81;5070607;28;20239;-77
2022/08/01 03:04:06;;;;;;;0.10;0.10;;;;;;;17.53;100.00;100199.63;5070521;28;20178;-76
2022/08/01 03:06:33;;;;;;;0.00;0.00;;;;;;;17.53;100.00;100200.44;5070403;28;20194;-77
2022/08/01 03:09:01;;;;;;;0.00;0.00;;;;;;;17.52;100.00;100200.81;5068797;28;20656;-76
2022/08/01 03:11:28;;;;;;;0.00;0.00;;;;;;;17.52;100.00;100206.31;5070562;28;20224;-76
2022/08/01 03:13:55;;;;;;;0.00;0.00;;;;;;;17.54;100.00;100201.22;5070397;28;20669;-77
2022/08/01 03:16:22;;;;;;;0.00;0.00;;;;;;;17.52;100.00;100198.03;5070459;28;20191;-77
2022/08/01 03:18:49;;;;;;;0.00;0.00;;;;;;;17.51;100.00;100199.19;5069906;28;20639;-77
2022/08/01 03:21:17;;;;;;;0.00;0.00;;;;;;;17.51;100.00;100200.00;5070429;28;20178;-77
2022/08/01 03:23:45;;;;;;;0.33;0.33;;;;;;;17.53;100.00;100199.63;5070205;28;20187;-77
2022/08/01 03:26:11;;;;;;;0.17;0.17;;;;;;;17.56;100.00;100207.19;5070190;28;20170;-77
2022/08/01 03:28:38;;;;;;;2.70;0.83;;;;;;;17.59;100.00;100197.38;5069854;28;20174;-77
2022/08/01 03:31:04;;;;;;;0.10;0.10;;;;;;;17.61;100.00;100200.56;5069316;28;20252;-76
2022/08/01 03:33:30;;;;;;;0.00;0.00;;;;;;;17.62;100.00;100194.66;5070602;28;20178;-77
2022/08/01 03:35:58;;;;;;;0.40;0.40;;;;;;;17.64;100.00;100194.31;5070146;28;20235;-77
2022/08/01 03:38:26;;;;;;;1.00;1.00;;;;;;;17.64;100.00;100200.63;5068636;28;20209;-77
2022/08/01 03:41:15;;;;;;;0.80;0.80;;;;;;;17.67;100.00;100199.13;5070179;28;20178;-76
2022/08/01 03:43:46;;;;;;;0.70;0.70;;;;;;;17.64;100.00;100199.81;5070138;28;20171;-76
2022/08/01 03:46:20;;;;;;;0.37;0.37;;;;;;;17.62;100.00;100208.47;5068683;28;20539;-77
2022/08/01 03:48:48;;;;;;;0.30;0.30;;;;;;;17.63;100.00;100203.75;5068340;28;20273;-77
2022/08/01 03:51:14;;;;;;;0.87;0.87;;;;;;;17.62;100.00;100214.00;5068522;28;20674;-77
2022/08/01 03:53:42;;;;;;;0.00;0.00;;;;;;;17.59;100.00;100203.69;5069532;28;20174;-77
2022/08/01 03:56:09;;;;;;;0.80;0.80;;;;;;;17.56;100.00;100198.91;5068779;28;20170;-75
2022/08/01 03:58:38;;;;;;;1.70;1.23;;;;;;;17.52;100.00;100198.03;5070733;28;20241;-76
2022/08/01 04:01:05;;;;;;;1.33;1.23;;;;;;;17.49;100.00;100204.25;5072261;28;20259;-77
2022/08/01 04:03:32;;;;;;;0.00;0.00;;;;;;;17.50;100.00;100214.16;5074164;28;20214;-77
2022/08/01 04:05:58;;;;;;;1.13;1.13;;;;;;;17.47;100.00;100204.63;5073504;28;20264;-76
2022/08/01 04:08:42;;;;;;;1.23;1.13;;;;;;;17.47;100.00;100223.16;5071658;28;20248;-77
2022/08/01 04:11:09;;;;;;;0.60;0.60;;;;;;;17.50;100.00;100222.44;5072111;28;20170;-77
2022/08/01 04:13:34;;;;;;;5.93;0.70;;;;;;;17.47;100.00;100223.16;5073365;28;20656;-76
2022/08/01 04:16:00;;;;;;;1.70;1.60;;;;;;;17.45;100.00;100240.09;5073354;28;20178;-77
2022/08/01 04:18:25;;;;;;;0.53;0.40;;;;;;;17.42;100.00;100227.03;5072971;28;20178;-77
2022/08/01 04:20:51;;;;;;;0.80;0.80;;;;;;;17.40;100.00;100237.66;5073590;28;20193;-77
2022/08/01 04:23:20;;;;;;;0.30;0.30;;;;;;;17.40;100.00;100242.38;5073266;28;20170;-77
2022/08/01 04:25:48;;;;;;;0.23;0.23;;;;;;;17.41;100.00;100243.97;5073429;28;20209;-77
2022/08/01 04:28:19;;;;;;;0.30;0.30;;;;;;;17.39;100.00;100254.59;5072863;28;20290;-77
2022/08/01 04:30:48;;;;;;;0.63;0.63;;;;;;;17.38;100.00;100255.75;5071677;28;20278;-77
2022/08/01 04:33:17;;;;;;;0.07;0.07;;;;;;;17.37;100.00;100256.91;5073100;28;20189;-76
2022/08/01 04:35:47;;;;;;;0.83;0.50;;;;;;;17.35;100.00;100264.72;5071662;28;20266;-78
2022/08/01 04:38:16;;;;;;;4.60;1.53;;;;;;;17.34;100.00;100261.16;5072540;28;20257;-77
2022/08/01 04:40:43;;;;;;;0.57;0.57;;;;;;;17.33;100.00;100270.63;5072795;28;20181;-76
2022/08/01 04:43:08;;;;;;;1.10;0.50;;;;;;;17.35;100.00;100273.00;5072896;28;20179;-77
2022/08/01 04:45:36;;;;;;;0.10;0.10;;;;;;;17.37;100.00;100279.81;5072787;28;20170;-77
2022/08/01 04:48:06;;;;;;;0.63;0.63;;;;;;;17.37;100.00;100279.00;5072387;28;20217;-77
2022/08/01 04:50:31;;;;;;;1.00;1.00;;;;;;;17.41;100.00;100285.41;5072662;28;20646;-77
2022/08/01 04:52:57;;;;;;;5.77;1.33;;;;;;;17.43;100.00;100288.59;5072151;28;20182;-77
2022/08/01 04:55:22;;;;;;;0.83;0.83;;;;;;;17.43;100.00;100280.31;5071307;28;20179;-77
2022/08/01 04:57:48;;;;;;;0.17;0.17;;;;;;;17.48;100.00;100280.81;5072400;28;20792;-76
2022/08/01 05:00:16;;;;;;;0.60;0.60;;;;;;;17.52;100.00;100286.44;5072327;28;20182;-78
2022/08/01 05:02:41;;;;;;;0.17;0.17;;;;;;;17.57;100.00;100294.44;5072424;28;20241;-77
2022/08/01 05:05:07;;;;;;;0.10;0.10;;;;;;;17.62;100.00;100293.34;5072435;28;20177;-76
2022/08/01 05:07:33;;;;;;;0.00;0.00;;;;;;;17.62;100.00;100296.91;5072162;28;20783;-77
2022/08/01 05:09:58;;;;;;;0.00;0.00;;;;;;;17.63;100.00;100292.16;5071315;28;20178;-77
2022/08/01 05:12:24;;;;;;;0.40;0.40;;;;;;;17.66;100.00;100289.50;5072494;28;20190;-77
2022/08/01 05:14:49;;;;;;;0.20;0.20;;;;;;;17.66;100.00;100285.94;5071052;28;20602;-77
2022/08/01 05:17:16;;;;;;;0.80;0.80;;;;;;;17.68;100.00;100289.97;5070785;28;20474;-77
2022/08/01 05:19:42;;;;;;;0.77;0.40;;;;;;;17.69;100.00;100293.53;5071831;28;20179;-77
2022/08/01 05:22:09;;;;;;;0.00;0.00;;;;;;;17.70;100.00;100300.66;5071890;28;20240;-76
2022/08/01 05:24:37;;;;;;;1.13;1.03;;;;;;;17.70;100.00;100306.97;5071828;28;20185;-78
2022/08/01 05:27:03;;;;;;;0.57;0.43;;;;;;;17.70;100.00;100306.19;5071675;28;20221;-77
2022/08/01 05:29:28;;;;;;;0.63;0.63;;;;;;;17.69;100.00;100307.34;5071903;28;20236;-76
2022/08/01 05:31:54;;;;;;;2.60;0.30;;;;;;;17.69;100.00;100308.16;5073416;28;20627;-76
2022/08/01 05:34:20;;;;;;;0.30;0.30;;;;;;;17.70;100.00;100308.94;5071779;28;20182;-75
2022/08/01 05:36:45;;;;;;;0.10;0.10;;;;;;;17.71;100.00;100305.81;5071761;28;20178;-76
2022/08/01 05:39:12;;;;;;;0.00;0.00;;;;;;;17.73;100.00;100303.47;5071607;28;20170;-76
2022/08/01 05:41:38;;;;;;;0.00;0.00;;;;;;;17.76;100.00;100300.00;5071859;28;20178;-75
2022/08/01 05:44:04;;;;;;;0.00;0.00;;;;;;;17.79;100.00;100315.03;5071860;28;20213;-77
2022/08/01 05:46:30;;;;;;;0.00;0.00;;;;;;;17.78;100.00;100311.47;5068396;28;20203;-76
2022/08/01 05:48:59;;;;;;;0.37;0.37;;;;;;;17.75;100.00;100309.44;5069152;28;20182;-77
2022/08/01 05:51:24;;;;;;;0.00;0.00;;;;;;;17.69;100.00;100307.34;5071763;28;20228;-78
2022/08/01 05:53:50;;;;;;;0.00;0.00;;;;;;;17.63;100.00;100308.75;5070886;28;20179;-77
2022/08/01 05:56:16;;;;;;;0.07;0.07;;;;;;;17.59;100.00;100311.44;5069986;28;20228;-77
2022/08/01 05:58:41;;;;;;;0.27;0.27;;;;;;;17.63;100.00;100317.03;5070775;28;20177;-77
2022/08/01 06:01:06;;;;;;;0.00;0.00;;;;;;;17.66;100.00;100316.34;5071337;28;20170;-77
2022/08/01 06:03:33;;;;;;;0.00;0.00;;;;;;;17.69;100.00;100316.44;5070249;28;20189;-77
2022/08/01 06:06:01;;;;;;;0.73;0.73;;;;;;;17.67;100.00;100315.97;5071258;28;20171;-77
2022/08/01 06:08:27;;;;;;;0.00;0.00;;;;;;;17.69;100.00;100316.44;5070650;28;20198;-77
2022/08/01 06:10:53;;;;;;;0.70;0.67;;;;;;;17.58;100.00;100315.38;5070985;28;20182;-77
2022/08/01 06:13:21;;;;;;;0.00;0.00;;;;;;;17.52;100.00;100322.34;5069718;28;20170;-77
2022/08/01 06:15:47;;;;;;;0.03;0.03;;;;;;;17.55;100.00;100329.91;5070999;28;20167;-77
2022/08/01 06:18:13;;;;;;;0.00;0.00;;;;;;;17.63;100.00;100325.31;5070797;28;20632;-77
2022/08/01 06:20:38;;;;;;;0.07;0.07;;;;;;;17.59;100.00;100328.00;5070576;28;20198;-77
2022/08/01 06:23:04;;;;;;;0.10;0.10;;;;;;;17.64;100.00;100324.16;5070753;28;20641;-76
2022/08/01 06:25:29;;;;;;;0.10;0.10;;;;;;;17.64;100.00;100326.91;5070935;28;20181;-76
2022/08/01 06:27:55;;;;;;;0.00;0.00;;;;;;;17.65;100.00;100331.28;5070586;28;20555;-77
2022/08/01 06:30:20;;;;;;;0.03;0.03;;;;;;;17.72;100.00;100337.00;5070382;28;20623;-77
2022/08/01 06:32:47;;;;;;;0.00;0.00;;;;;;;17.78;100.00;100333.59;5069540;28;20171;-76
2022/08/01 06:35:13;;;;;;;0.07;0.03;;;;;;;17.80;100.00;100330.47;5070793;28;20220;-76
2022/08/01 06:37:38;;;;;;;0.00;0.00;;;;;;;17.87;100.00;100335.34;5070608;28;20179;-76
2022/08/01 06:40:05;;;;;;;0.20;0.20;;;;;;;17.87;100.00;100340.88;5070493;28;20171;-75
2022/08/01 06:42:37;;;;;;;0.00;0.00;;;;;;;17.93;100.00;100334.69;5070949;28;20166;-76
2022/08/01 06:45:09;;;;;;;0.00;0.00;;;;;;;18.03;100.00;100339.63;5070738;28;20170;-76
2022/08/01 06:47:35;;;;;;;0.47;0.43;;;;;;;18.04;100.00;100332.13;5070598;28;20242;-75
2022/08/01 06:50:02;;;;;;;0.40;0.40;;;;;;;18.05;100.00;100339.28;5070539;28;20254;-76
2022/08/01 06:52:28;;;;;;;0.20;0.10;;;;;;;18.10;100.00;100339.78;5070118;28;20252;-76
2022/08/01 06:54:53;;;;;;;0.63;0.63;;;;;;;18.05;100.00;100337.31;5069334;28;20175;-77
2022/08/01 06:57:18;;;;;;;0.50;0.50;;;;;;;18.10;100.00;100347.28;5070670;28;20170;-78
2022/08/01 06:59:44;;;;;;;0.00;0.00;;;;;;;18.07;100.00;100348.00;5070364;28;20198;-76
2022/08/01 07:02:09;;;;;;;0.20;0.20;;;;;;;18.05;100.00;100350.31;5069236;28;20257;-75
2022/08/01 07:04:35;;;;;;;0.00;0.00;;;;;;;18.08;100.00;100353.19;5070569;28;20182;-76
2022/08/01 07:07:00;;;;;;;0.00;0.00;;;;;;;18.03;100.00;100347.94;5070403;28;20247;-77
2022/08/01 07:09:26;;;;;;;0.17;0.17;;;;;;;18.04;100.00;100351.50;5070408;28;20798;-78
2022/08/01 07:11:53;;;;;;;0.17;0.17;;;;;;;17.87;100.00;100357.47;5070519;28;20185;-78
2022/08/01 07:14:19;;;;;;;0.00;0.00;;;;;;;17.69;100.00;100360.66;5070524;28;20170;-77
2022/08/01 07:16:45;;;;;;;0.00;0.00;;;;;;;17.72;100.00;100362.69;5070464;28;20177;-78
2022/08/01 07:19:10;;;;;;;0.10;0.10;;;;;;;17.70;100.00;100367.78;5068685;28;20252;-77
2022/08/01 07:21:36;;;;;;;0.00;0.00;;;;;;;17.66;100.00;100360.53;5070307;28;20178;-77
2022/08/01 07:24:01;;;;;;;0.00;0.00;;;;;;;17.71;100.00;100352.00;5070279;28;20627;-77
2022/08/01 07:26:27;;;;;;;0.10;0.10;;;;;;;17.73;100.00;100375.34;5068912;28;20195;-77
2022/08/01 07:28:52;;;;;;;0.30;0.30;;;;;;;17.57;100.00;100371.78;5068580;28;20170;-78
2022/08/01 07:31:18;;;;;;;0.00;0.00;;;;;;;17.57;100.00;100369.03;5070239;28;20254;-77
2022/08/01 07:33:44;;;;;;;0.00;0.00;;;;;;;17.57;100.00;100371.78;5071689;28;20273;-77
2022/08/01 07:36:09;;;;;;;0.20;0.20;;;;;;;17.54;100.00;100372.50;5072665;28;20227;-76
2022/08/01 07:38:35;;;;;;;1.03;0.20;;;;;;;17.62;100.00;100373.47;5073543;28;20174;-76
2022/08/01 07:41:00;;;;;;;0.10;0.10;;;;;;;17.54;100.00;100384.34;5072649;28;20630;-80
2022/08/01 07:43:25;;;;;;;0.00;0.00;;;;;;;17.68;100.00;100375.63;5073824;28;20662;-80
2022/08/01 07:45:51;;;;;;;0.23;0.23;;;;;;;17.75;100.00;100373.00;5073748;28;20178;-76
2022/08/01 07:48:16;;;;;;;0.13;0.13;;;;;;;17.73;100.00;100382.81;5073014;28;20209;-75
2022/08/01 07:50:41;;;;;;;0.10;0.10;;;;;;;17.88;100.00;100379.22;5072790;28;20225;-76
2022/08/01 07:53:07;;;;;;;0.43;0.33;;;;;;;17.80;100.00;100385.75;5073215;28;20209;-76
2022/08/01 07:55:32;;;;;;;0.00;0.00;;;;;;;17.90;100.00;100384.38;5073611;28;20171;-76
2022/08/01 07:57:58;;;;;;;0.00;0.00;;;;;;;17.86;100.00;100381.53;5073068;28;20898;-76
2022/08/01 08:00:24;;;;;;;0.00;0.00;;;;;;;17.97;100.00;100396.41;5073118;28;20178;-75
2022/08/01 08:02:49;;;;;;;0.20;0.20;;;;;;;18.07;100.00;100395.00;5072064;28;20622;-75
2022/08/01 08:05:15;;;;;;;0.10;0.10;;;;;;;17.97;100.00;100390.06;5070717;28;20244;-75
2022/08/01 08:07:40;;;;;;;0.10;0.10;;;;;;;17.86;100.00;100403.66;5070646;28;20202;-76
2022/08/01 08:10:06;;;;;;;0.20;0.20;;;;;;;17.96;100.00;100405.84;5072532;28;20275;-75
2022/08/01 08:12:31;;;;;;;0.30;0.30;;;;;;;17.98;100.00;100405.50;5069904;28;20661;-75
2022/08/01 08:15:00;;;;;;;0.00;0.00;;;;;;;18.11;100.00;100413.28;5071106;28;20197;-76
2022/08/01 08:17:27;;;;;;;0.00;0.00;;;;;;;18.19;100.00;100407.88;5072895;28;20491;-75
2022/08/01 08:19:52;;;;;;;0.37;0.37;;;;;;;18.28;100.00;100409.28;5073317;28;20177;-76
2022/08/01 08:22:18;;;;;;;0.00;0.00;;;;;;;18.35;100.00;100414.16;5071885;28;20183;-75
2022/08/01 08:24:43;;;;;;;0.13;0.13;;;;;;;18.50;100.00;100409.69;5071801;28;20602;-75
2022/08/01 08:27:09;;;;;;;0.00;0.00;;;;;;;18.52;100.00;100421.22;5072895;28;20207;-75
2022/08/01 08:29:34;;;;;;;0.00;0.00;;;;;;;18.56;100.00;100425.66;5072922;28;20183;-76
2022/08/01 08:32:01;;;;;;;0.47;0.47;;;;;;;18.66;100.00;100433.41;5073053;28;20528;-75
2022/08/01 08:34:28;;;;;;;0.10;0.10;;;;;;;18.52;100.00;100432.28;5072075;28;20598;-76
2022/08/01 08:36:55;;;;;;;0.00;0.00;;;;;;;18.53;100.00;100428.34;5071475;28;20779;-76
2022/08/01 08:39:20;;;;;;;0.13;0.00;;;;;;;18.76;100.00;100440.28;5072786;28;20266;-76
2022/08/01 08:41:47;;;;;;;0.00;0.00;;;;;;;18.70;100.00;100434.25;5072878;28;20591;-76
2022/08/01 08:44:12;;;;;;;0.00;0.00;;;;;;;18.71;100.00;100444.16;5072614;28;20182;-76
2022/08/01 08:46:46;;;;;;;0.00;0.00;;;;;;;18.75;100.00;100444.22;5072069;28;20202;-76
2022/08/01 08:49:15;;;;;;;0.07;0.07;;;;;;;18.85;100.00;100440.84;5069589;28;20550;-76
2022/08/01 08:51:42;;;;;;;0.03;0.03;;;;;;;18.79;100.00;100450.63;5058696;28;20199;-76
2022/08/01 08:54:10;;;;;;;3.90;0.80;;;;;;;18.74;100.00;100448.16;5071406;28;20263;-76
2022/08/01 08:56:37;;;;;;;0.10;0.10;;;;;;;18.76;100.00;100459.66;5070534;28;20696;-76
2022/08/01 08:59:03;;;;;;;0.20;0.20;;;;;;;18.83;100.00;100454.28;5072075;28;20197;-76
2022/08/01 09:01:32;;;;;;;0.30;0.30;;;;;;;18.89;100.00;100463.06;5070746;28;20186;-76
2022/08/01 09:03:57;;;;;;;0.30;0.30;;;;;;;18.72;100.00;100462.38;5069818;28;20193;-76
2022/08/01 09:06:23;;;;;;;0.10;0.10;;;;;;;18.67;100.00;100468.22;5071955;28;20310;-76
2022/08/01 09:08:49;;;;;;;0.00;0.00;;;;;;;18.63;100.00;100469.25;5071540;28;20186;-76
2022/08/01 09:11:14;;;;;;;0.17;0.10;;;;;;;18.54;100.00;100477.00;5070969;28;20178;-75
2022/08/01 09:13:39;;;;;;;0.00;0.00;;;;;;;18.58;100.00;100478.66;5072428;28;20178;-75
2022/08/01 09:16:05;;;;;;;0.20;0.20;;;;;;;18.62;100.00;100479.53;5070550;28;20202;-76
2022/08/01 09:18:39;;;;;;;0.40;0.10;;;;;;;18.66;100.00;100487.91;5069853;28;20251;-75
2022/08/01 09:21:10;;;;;;;0.40;0.40;;;;;;;18.86;100.00;100497.03;5072096;28;20357;-75
2022/08/01 09:23:42;;;;;;;0.00;0.00;;;;;;;19.05;100.00;100493.44;5071846;28;20182;-76
2022/08/01 09:26:12;;;;;;;0.10;0.10;;;;;;;19.18;100.00;100505.94;5071692;28;20181;-76
2022/08/01 09:28:39;;;;;;;0.00;0.00;;;;;;;19.26;100.00;100510.44;5071106;28;20178;-76
2022/08/01 09:31:39;;;;;;;0.00;0.00;;;;;;;19.22;100.00;100510.34;5070495;28;20190;-75
2022/08/01 09:34:05;;;;;;;0.00;0.00;;;;;;;19.19;100.00;100510.31;5071848;28;20182;-75
2022/08/01 09:36:48;;;;;;;0.00;0.00;;;;;;;19.19;100.00;100515.84;5070203;28;20183;-76
2022/08/01 09:39:14;;;;;;;0.07;0.07;;;;;;;19.10;100.00;100518.06;5071151;28;20183;-75
2022/08/01 09:41:41;;;;;;;0.17;0.00;;;;;;;19.21;100.00;100517.06;5070212;28;20178;-75
2022/08/01 09:44:06;;;;;;;0.10;0.00;;;;;;;19.26;100.00;100516.00;5070315;28;20220;-76
2022/08/01 09:46:31;;;;;;;0.00;0.00;;;;;;;19.32;100.00;100520.03;5071342;28;20533;-76
2022/08/01 09:49:03;;;;;;;0.00;0.00;;;;;;;19.36;100.00;100522.88;5069767;28;20175;-76
2022/08/01 09:51:34;;;;;;;0.00;0.00;;;;;;;19.31;100.00;100530.31;5071328;28;20265;-76
2022/08/01 09:54:00;;;;;;;0.00;0.00;;;;;;;19.16;100.00;100536.78;5071489;28;20159;-76
2022/08/01 09:56:25;;;;;;;0.23;0.23;;;;;;;19.06;100.00;100528.25;5070102;28;20235;-75
2022/08/01 09:58:59;;;;;;;0.00;0.00;;;;;;;19.14;100.00;100535.53;5071216;28;20178;-76
2022/08/01 10:01:25;;;;;;;0.00;0.00;;;;;;;19.15;100.00;100534.38;5070406;28;20246;-76
2022/08/01 10:04:24;;;;;;;0.40;0.40;;;;;;;19.12;100.00;100533.16;5069263;28;20273;-76
2022/08/01 10:06:53;;;;;;;0.13;0.13;;;;;;;19.15;100.00;100540.72;5055980;28;20218;-76
2022/08/01 10:09:29;;;;;;;0.00;0.00;;;;;;;19.16;100.00;100531.22;5071250;28;20181;-75
2022/08/01 10:11:56;;;;;;;0.33;0.33;;;;;;;19.02;100.00;100544.81;5071906;28;20178;-75
2022/08/01 10:14:24;;;;;;;0.00;0.00;;;;;;;19.02;100.00;100539.28;5072460;28;20254;-76
2022/08/01 10:16:52;;;;;;;0.00;0.00;;;;;;;18.98;100.00;100549.50;5075093;28;20242;-76
2022/08/01 10:19:20;;;;;;;0.00;0.00;;;;;;;19.02;100.00;100548.38;5072906;28;20314;-76
2022/08/01 10:21:49;;;;;;;0.00;0.00;;;;;;;18.99;100.00;100549.13;5071627;28;20642;-76
2022/08/01 10:24:15;;;;;;;0.00;0.00;;;;;;;19.03;100.00;100546.41;5072146;28;20218;-75
2022/08/01 10:26:42;;;;;;;0.00;0.00;;;;;;;19.10;100.00;100546.56;5071331;28;20198;-75
2022/08/01 10:29:09;;;;;;;0.00;0.00;;;;;;;19.14;99.62;100547.44;5071000;28;20174;-76
2022/08/01 10:31:34;;;;;;;0.10;0.10;;;;;;;19.20;99.39;100545.94;5069741;28;20533;-76
2022/08/01 10:34:01;;;;;;;0.00;0.00;;;;;;;19.33;100.00;100547.38;5070992;28;20723;-76
2022/08/01 10:36:27;;;;;;;0.00;0.00;;;;;;;19.40;99.30;100546.72;5070870;28;20174;-76
2022/08/01 10:38:55;;;;;;;0.00;0.00;;;;;;;19.50;98.24;100543.31;5070101;28;20162;-77
2022/08/01 10:41:21;;;;;;;0.00;0.00;;;;;;;19.57;97.97;100545.47;5071012;28;20170;-76
2022/08/01 10:43:46;;;;;;;0.00;0.00;;;;;;;19.67;97.49;100544.03;5069308;28;20178;-76
2022/08/01 10:46:12;;;;;;;0.10;0.10;;;;;;;19.73;97.37;100548.91;5070780;28;20544;-76
2022/08/01 10:48:59;;;;;;;0.00;0.00;;;;;;;19.70;96.24;100552.41;5066738;28;20363;-76
2022/08/01 10:51:27;;;;;;;0.13;0.13;;;;;;;19.63;95.17;100543.97;5069043;28;20198;-75
2022/08/01 10:53:54;;;;;;;0.00;0.00;;;;;;;19.60;94.61;100545.50;5070854;28;20285;-77
2022/08/01 10:56:21;;;;;;;0.00;0.00;;;;;;;19.54;94.76;100546.19;5070896;28;20468;-77
2022/08/01 10:58:48;;;;;;;0.37;0.37;;;;;;;19.51;96.17;100544.91;5069126;28;20170;-76
2022/08/01 11:01:16;;;;;;;0.00;0.00;;;;;;;19.59;97.33;100548.66;5070898;28;20376;-76
2022/08/01 11:03:43;;;;;;;0.23;0.23;;;;;;;19.51;94.66;100555.19;5070332;28;20202;-76
2022/08/01 11:06:17;;;;;;;0.20;0.20;;;;;;;19.49;94.05;100552.81;5069767;28;20182;-76
2022/08/01 11:08:50;;;;;;;0.00;0.00;;;;;;;19.54;93.52;100546.19;5073933;28;20182;-76
2022/08/01 11:11:16;;;;;;;0.00;0.00;;;;;;;19.62;94.53;100539.59;5075140;28;20174;-76
2022/08/01 11:14:12;;;;;;;0.00;0.00;;;;;;;19.74;94.42;100558.81;5074943;28;20167;-76
2022/08/01 11:16:39;;;;;;;0.00;0.00;;;;;;;19.71;91.18;100551.25;5073362;28;20171;-76
2022/08/01 11:19:08;;;;;;;0.30;0.30;;;;;;;19.89;92.78;100546.78;5074745;28;20194;-76
2022/08/01 11:22:03;;;;;;;0.10;0.10;;;;;;;20.02;91.09;100549.38;5074670;28;20171;-76